sensor_id;sensor_type;location;lat;lon;timestamp;P1;durP1;ratioP1;P2;durP2;ratioP2
24216;SDS011;12356;49.386;8.688;2023-02-28T00:00:49;4.35;;;2.72;;
24216;SDS011;12356;49.386;8.688;2023-02-28T00:03:19;5.03;;;2.80;;
24216;SDS011;12356;49.386;8.688;2023-02-28T00:05:50;6.78;;;2.97;;
24216;SDS011;12356;49.386;8.688;2023-02-28T00:08:20;4.57;;;2.90;;
24216;SDS011;12356;49.386;8.688;2023-02-28T00:10:51;5.38;;;2.83;;
24216;SDS011;12356;49.386;8.688;2023-02-28T00:13:21;5.10;;;2.90;;
24216;SDS011;12356;49.386;8.688;2023-02-28T00:16:02;5.32;;;2.80;;
24216;SDS011;12356;49.386;8.688;2023-02-28T00:18:38;4.50;;;2.90;;
24216;SDS011;12356;49.386;8.688;2023-02-28T00:21:09;4.55;;;3.00;;
24216;SDS011;12356;49.386;8.688;2023-02-28T00:23:40;5.00;;;2.78;;
24216;SDS011;12356;49.386;8.688;2023-02-28T00:26:10;3.83;;;2.70;;
24216;SDS011;12356;49.386;8.688;2023-02-28T00:28:41;4.40;;;2.58;;
24216;SDS011;12356;49.386;8.688;2023-02-28T00:31:12;4.40;;;2.75;;
24216;SDS011;12356;49.386;8.688;2023-02-28T00:33:42;4.13;;;2.63;;
24216;SDS011;12356;49.386;8.688;2023-02-28T00:36:13;4.47;;;3.00;;
24216;SDS011;12356;49.386;8.688;2023-02-28T00:38:43;5.38;;;2.75;;
24216;SDS011;12356;49.386;8.688;2023-02-28T00:41:14;4.85;;;2.80;;
24216;SDS011;12356;49.386;8.688;2023-02-28T00:43:44;5.35;;;3.15;;
24216;SDS011;12356;49.386;8.688;2023-02-28T00:46:15;4.97;;;2.92;;
24216;SDS011;12356;49.386;8.688;2023-02-28T00:48:46;5.40;;;3.03;;
24216;SDS011;12356;49.386;8.688;2023-02-28T00:51:17;4.18;;;2.85;;
24216;SDS011;12356;49.386;8.688;2023-02-28T00:53:47;5.55;;;3.13;;
24216;SDS011;12356;49.386;8.688;2023-02-28T00:56:18;5.68;;;3.22;;
24216;SDS011;12356;49.386;8.688;2023-02-28T00:58:48;5.80;;;2.83;;
24216;SDS011;12356;49.386;8.688;2023-02-28T01:01:19;7.13;;;3.13;;
24216;SDS011;12356;49.386;8.688;2023-02-28T01:03:49;5.38;;;3.20;;
24216;SDS011;12356;49.386;8.688;2023-02-28T01:06:20;5.35;;;3.10;;
24216;SDS011;12356;49.386;8.688;2023-02-28T01:08:50;5.43;;;3.22;;
24216;SDS011;12356;49.386;8.688;2023-02-28T01:11:21;6.55;;;3.25;;
24216;SDS011;12356;49.386;8.688;2023-02-28T01:13:51;5.35;;;3.03;;
24216;SDS011;12356;49.386;8.688;2023-02-28T01:16:22;5.47;;;2.90;;
24216;SDS011;12356;49.386;8.688;2023-02-28T01:18:53;5.97;;;3.05;;
24216;SDS011;12356;49.386;8.688;2023-02-28T01:21:24;5.28;;;2.90;;
24216;SDS011;12356;49.386;8.688;2023-02-28T01:23:56;5.03;;;2.97;;
24216;SDS011;12356;49.386;8.688;2023-02-28T01:26:27;5.28;;;3.25;;
24216;SDS011;12356;49.386;8.688;2023-02-28T01:28:57;5.00;;;3.28;;
24216;SDS011;12356;49.386;8.688;2023-02-28T01:31:28;5.25;;;3.20;;
24216;SDS011;12356;49.386;8.688;2023-02-28T01:33:59;4.32;;;2.80;;
24216;SDS011;12356;49.386;8.688;2023-02-28T01:36:29;5.68;;;3.33;;
24216;SDS011;12356;49.386;8.688;2023-02-28T01:39:00;4.55;;;2.97;;
24216;SDS011;12356;49.386;8.688;2023-02-28T01:41:31;4.90;;;3.25;;
24216;SDS011;12356;49.386;8.688;2023-02-28T01:44:04;6.18;;;3.30;;
24216;SDS011;12356;49.386;8.688;2023-02-28T01:46:56;5.72;;;3.25;;
24216;SDS011;12356;49.386;8.688;2023-02-28T01:49:26;6.05;;;3.60;;
24216;SDS011;12356;49.386;8.688;2023-02-28T01:51:57;5.90;;;3.53;;
24216;SDS011;12356;49.386;8.688;2023-02-28T01:54:29;7.40;;;3.70;;
24216;SDS011;12356;49.386;8.688;2023-02-28T01:57:05;6.95;;;3.50;;
24216;SDS011;12356;49.386;8.688;2023-02-28T02:02:37;6.63;;;3.38;;
24216;SDS011;12356;49.386;8.688;2023-02-28T02:05:09;6.13;;;3.47;;
24216;SDS011;12356;49.386;8.688;2023-02-28T02:07:44;6.20;;;3.63;;
24216;SDS011;12356;49.386;8.688;2023-02-28T02:10:18;6.70;;;3.50;;
24216;SDS011;12356;49.386;8.688;2023-02-28T02:13:13;5.65;;;3.85;;
24216;SDS011;12356;49.386;8.688;2023-02-28T02:19:05;8.02;;;3.70;;
24216;SDS011;12356;49.386;8.688;2023-02-28T02:39:53;5.65;;;3.72;;
24216;SDS011;12356;49.386;8.688;2023-02-28T02:45:31;7.15;;;3.80;;
24216;SDS011;12356;49.386;8.688;2023-02-28T02:48:10;7.40;;;3.83;;
24216;SDS011;12356;49.386;8.688;2023-02-28T02:50:44;6.57;;;4.05;;
24216;SDS011;12356;49.386;8.688;2023-02-28T02:53:18;7.40;;;3.97;;
24216;SDS011;12356;49.386;8.688;2023-02-28T02:55:53;6.30;;;3.60;;
24216;SDS011;12356;49.386;8.688;2023-02-28T02:58:26;5.72;;;3.88;;
24216;SDS011;12356;49.386;8.688;2023-02-28T03:01:01;6.78;;;3.67;;
24216;SDS011;12356;49.386;8.688;2023-02-28T03:03:33;6.53;;;3.85;;
24216;SDS011;12356;49.386;8.688;2023-02-28T03:06:05;6.78;;;4.07;;
24216;SDS011;12356;49.386;8.688;2023-02-28T03:08:36;5.57;;;3.72;;
24216;SDS011;12356;49.386;8.688;2023-02-28T03:11:12;6.60;;;4.00;;
24216;SDS011;12356;49.386;8.688;2023-02-28T03:13:48;6.88;;;4.20;;
24216;SDS011;12356;49.386;8.688;2023-02-28T03:16:49;8.88;;;4.30;;
24216;SDS011;12356;49.386;8.688;2023-02-28T03:22:45;6.97;;;4.20;;
24216;SDS011;12356;49.386;8.688;2023-02-28T03:25:33;8.60;;;4.55;;
24216;SDS011;12356;49.386;8.688;2023-02-28T03:28:24;6.80;;;4.13;;
24216;SDS011;12356;49.386;8.688;2023-02-28T03:31:16;8.63;;;4.30;;
24216;SDS011;12356;49.386;8.688;2023-02-28T03:33:54;7.45;;;4.32;;
24216;SDS011;12356;49.386;8.688;2023-02-28T03:36:37;8.05;;;4.30;;
24216;SDS011;12356;49.386;8.688;2023-02-28T03:39:14;7.03;;;4.38;;
24216;SDS011;12356;49.386;8.688;2023-02-28T03:44:42;7.78;;;4.53;;
24216;SDS011;12356;49.386;8.688;2023-02-28T03:47:23;8.65;;;4.57;;
24216;SDS011;12356;49.386;8.688;2023-02-28T03:52:51;8.82;;;4.68;;
24216;SDS011;12356;49.386;8.688;2023-02-28T03:55:41;7.88;;;4.65;;
24216;SDS011;12356;49.386;8.688;2023-02-28T03:58:18;7.38;;;4.38;;
24216;SDS011;12356;49.386;8.688;2023-02-28T04:01:04;9.02;;;4.75;;
24216;SDS011;12356;49.386;8.688;2023-02-28T04:03:41;7.90;;;4.90;;
24216;SDS011;12356;49.386;8.688;2023-02-28T04:06:14;8.80;;;4.93;;
24216;SDS011;12356;49.386;8.688;2023-02-28T04:08:47;9.63;;;5.03;;
24216;SDS011;12356;49.386;8.688;2023-02-28T04:11:20;8.60;;;5.10;;
24216;SDS011;12356;49.386;8.688;2023-02-28T04:13:51;8.05;;;4.72;;
24216;SDS011;12356;49.386;8.688;2023-02-28T04:16:22;8.70;;;5.30;;
24216;SDS011;12356;49.386;8.688;2023-02-28T04:18:52;9.63;;;5.03;;
24216;SDS011;12356;49.386;8.688;2023-02-28T04:21:23;9.43;;;5.03;;
24216;SDS011;12356;49.386;8.688;2023-02-28T04:23:53;7.88;;;5.20;;
24216;SDS011;12356;49.386;8.688;2023-02-28T04:26:24;8.90;;;4.97;;
24216;SDS011;12356;49.386;8.688;2023-02-28T04:28:55;9.48;;;5.30;;
24216;SDS011;12356;49.386;8.688;2023-02-28T04:31:26;9.68;;;5.20;;
24216;SDS011;12356;49.386;8.688;2023-02-28T04:33:56;9.25;;;5.60;;
24216;SDS011;12356;49.386;8.688;2023-02-28T04:36:27;8.30;;;5.10;;
24216;SDS011;12356;49.386;8.688;2023-02-28T04:38:58;9.75;;;5.50;;
24216;SDS011;12356;49.386;8.688;2023-02-28T04:41:28;7.85;;;5.00;;
24216;SDS011;12356;49.386;8.688;2023-02-28T04:43:59;8.95;;;4.90;;
24216;SDS011;12356;49.386;8.688;2023-02-28T04:46:29;8.90;;;5.07;;
24216;SDS011;12356;49.386;8.688;2023-02-28T04:49:00;8.25;;;4.93;;
24216;SDS011;12356;49.386;8.688;2023-02-28T04:51:31;8.07;;;4.85;;
24216;SDS011;12356;49.386;8.688;2023-02-28T04:54:01;9.50;;;5.22;;
24216;SDS011;12356;49.386;8.688;2023-02-28T04:56:32;11.48;;;5.20;;
24216;SDS011;12356;49.386;8.688;2023-02-28T04:59:03;10.40;;;5.40;;
24216;SDS011;12356;49.386;8.688;2023-02-28T05:01:34;10.73;;;5.40;;
24216;SDS011;12356;49.386;8.688;2023-02-28T05:04:06;8.00;;;5.15;;
24216;SDS011;12356;49.386;8.688;2023-02-28T05:06:36;7.65;;;4.85;;
24216;SDS011;12356;49.386;8.688;2023-02-28T05:09:07;8.95;;;5.07;;
24216;SDS011;12356;49.386;8.688;2023-02-28T05:11:37;8.68;;;4.90;;
24216;SDS011;12356;49.386;8.688;2023-02-28T05:14:11;8.55;;;5.00;;
24216;SDS011;12356;49.386;8.688;2023-02-28T05:16:43;9.13;;;5.32;;
24216;SDS011;12356;49.386;8.688;2023-02-28T05:19:14;9.40;;;4.95;;
24216;SDS011;12356;49.386;8.688;2023-02-28T05:21:49;8.27;;;4.93;;
24216;SDS011;12356;49.386;8.688;2023-02-28T05:24:24;8.68;;;4.70;;
24216;SDS011;12356;49.386;8.688;2023-02-28T05:26:55;8.38;;;4.57;;
24216;SDS011;12356;49.386;8.688;2023-02-28T05:29:25;8.68;;;4.82;;
24216;SDS011;12356;49.386;8.688;2023-02-28T05:31:56;9.73;;;5.45;;
24216;SDS011;12356;49.386;8.688;2023-02-28T05:34:26;8.63;;;5.15;;
24216;SDS011;12356;49.386;8.688;2023-02-28T05:36:57;8.70;;;4.80;;
24216;SDS011;12356;49.386;8.688;2023-02-28T05:39:27;8.73;;;5.10;;
24216;SDS011;12356;49.386;8.688;2023-02-28T05:41:58;8.93;;;4.90;;
24216;SDS011;12356;49.386;8.688;2023-02-28T05:44:29;8.77;;;5.10;;
24216;SDS011;12356;49.386;8.688;2023-02-28T05:46:59;11.23;;;5.07;;
24216;SDS011;12356;49.386;8.688;2023-02-28T05:49:30;8.00;;;4.85;;
24216;SDS011;12356;49.386;8.688;2023-02-28T05:52:00;9.07;;;4.93;;
24216;SDS011;12356;49.386;8.688;2023-02-28T05:54:31;8.52;;;4.70;;
24216;SDS011;12356;49.386;8.688;2023-02-28T05:57:01;8.93;;;4.72;;
24216;SDS011;12356;49.386;8.688;2023-02-28T05:59:32;9.30;;;5.38;;
24216;SDS011;12356;49.386;8.688;2023-02-28T06:02:02;9.38;;;5.22;;
24216;SDS011;12356;49.386;8.688;2023-02-28T06:04:33;8.25;;;5.00;;
24216;SDS011;12356;49.386;8.688;2023-02-28T06:07:04;9.52;;;5.07;;
24216;SDS011;12356;49.386;8.688;2023-02-28T06:09:34;9.98;;;5.28;;
24216;SDS011;12356;49.386;8.688;2023-02-28T06:12:05;10.48;;;4.90;;
24216;SDS011;12356;49.386;8.688;2023-02-28T06:14:37;9.33;;;5.50;;
24216;SDS011;12356;49.386;8.688;2023-02-28T06:17:08;9.23;;;5.07;;
24216;SDS011;12356;49.386;8.688;2023-02-28T06:19:39;8.43;;;5.05;;
24216;SDS011;12356;49.386;8.688;2023-02-28T06:22:11;8.97;;;5.03;;
24216;SDS011;12356;49.386;8.688;2023-02-28T06:24:41;8.45;;;5.30;;
24216;SDS011;12356;49.386;8.688;2023-02-28T06:27:12;7.55;;;4.82;;
24216;SDS011;12356;49.386;8.688;2023-02-28T06:29:42;11.10;;;6.70;;
24216;SDS011;12356;49.386;8.688;2023-02-28T06:32:13;8.88;;;5.13;;
24216;SDS011;12356;49.386;8.688;2023-02-28T06:34:43;9.18;;;5.30;;
24216;SDS011;12356;49.386;8.688;2023-02-28T06:37:14;9.00;;;5.30;;
24216;SDS011;12356;49.386;8.688;2023-02-28T06:39:45;9.30;;;5.30;;
24216;SDS011;12356;49.386;8.688;2023-02-28T06:42:15;10.93;;;6.18;;
24216;SDS011;12356;49.386;8.688;2023-02-28T06:44:46;9.43;;;5.40;;
24216;SDS011;12356;49.386;8.688;2023-02-28T06:47:16;10.13;;;5.60;;
24216;SDS011;12356;49.386;8.688;2023-02-28T06:49:47;11.48;;;5.75;;
24216;SDS011;12356;49.386;8.688;2023-02-28T06:52:17;9.05;;;5.47;;
24216;SDS011;12356;49.386;8.688;2023-02-28T06:54:48;12.52;;;5.68;;
24216;SDS011;12356;49.386;8.688;2023-02-28T06:57:29;10.13;;;5.50;;
24216;SDS011;12356;49.386;8.688;2023-02-28T07:00:02;11.98;;;6.93;;
24216;SDS011;12356;49.386;8.688;2023-02-28T07:02:38;11.68;;;5.63;;
24216;SDS011;12356;49.386;8.688;2023-02-28T07:05:09;11.70;;;5.97;;
24216;SDS011;12356;49.386;8.688;2023-02-28T07:07:39;10.60;;;5.72;;
24216;SDS011;12356;49.386;8.688;2023-02-28T07:10:13;13.32;;;5.82;;
24216;SDS011;12356;49.386;8.688;2023-02-28T07:12:46;10.07;;;5.80;;
24216;SDS011;12356;49.386;8.688;2023-02-28T07:15:17;9.27;;;5.88;;
24216;SDS011;12356;49.386;8.688;2023-02-28T07:17:47;10.80;;;6.13;;
24216;SDS011;12356;49.386;8.688;2023-02-28T07:20:18;9.32;;;5.57;;
24216;SDS011;12356;49.386;8.688;2023-02-28T07:22:49;11.73;;;5.70;;
24216;SDS011;12356;49.386;8.688;2023-02-28T07:25:26;13.65;;;6.25;;
24216;SDS011;12356;49.386;8.688;2023-02-28T07:27:58;10.98;;;5.85;;
24216;SDS011;12356;49.386;8.688;2023-02-28T07:30:30;10.55;;;5.85;;
24216;SDS011;12356;49.386;8.688;2023-02-28T07:33:00;11.50;;;5.95;;
24216;SDS011;12356;49.386;8.688;2023-02-28T07:35:31;9.82;;;5.82;;
24216;SDS011;12356;49.386;8.688;2023-02-28T07:38:02;10.13;;;5.75;;
24216;SDS011;12356;49.386;8.688;2023-02-28T07:40:33;9.90;;;5.65;;
24216;SDS011;12356;49.386;8.688;2023-02-28T07:43:04;12.97;;;6.60;;
24216;SDS011;12356;49.386;8.688;2023-02-28T07:45:35;12.52;;;6.03;;
24216;SDS011;12356;49.386;8.688;2023-02-28T07:48:05;9.85;;;5.80;;
24216;SDS011;12356;49.386;8.688;2023-02-28T07:50:36;10.25;;;5.93;;
24216;SDS011;12356;49.386;8.688;2023-02-28T07:53:06;10.48;;;6.32;;
24216;SDS011;12356;49.386;8.688;2023-02-28T07:55:37;10.48;;;6.10;;
24216;SDS011;12356;49.386;8.688;2023-02-28T07:58:07;10.48;;;6.15;;
24216;SDS011;12356;49.386;8.688;2023-02-28T08:00:38;10.73;;;6.32;;
24216;SDS011;12356;49.386;8.688;2023-02-28T08:03:10;9.73;;;5.95;;
24216;SDS011;12356;49.386;8.688;2023-02-28T08:05:42;10.32;;;6.30;;
24216;SDS011;12356;49.386;8.688;2023-02-28T08:08:13;12.90;;;6.40;;
24216;SDS011;12356;49.386;8.688;2023-02-28T08:10:44;14.38;;;6.88;;
24216;SDS011;12356;49.386;8.688;2023-02-28T08:13:14;13.90;;;6.55;;
24216;SDS011;12356;49.386;8.688;2023-02-28T08:15:45;11.23;;;6.30;;
24216;SDS011;12356;49.386;8.688;2023-02-28T08:18:17;10.48;;;6.25;;
24216;SDS011;12356;49.386;8.688;2023-02-28T08:20:48;10.40;;;6.10;;
24216;SDS011;12356;49.386;8.688;2023-02-28T08:23:18;11.73;;;6.88;;
24216;SDS011;12356;49.386;8.688;2023-02-28T08:25:55;11.98;;;6.82;;
24216;SDS011;12356;49.386;8.688;2023-02-28T08:28:26;13.13;;;6.28;;
24216;SDS011;12356;49.386;8.688;2023-02-28T08:30:57;10.45;;;6.32;;
24216;SDS011;12356;49.386;8.688;2023-02-28T08:33:28;13.02;;;6.38;;
24216;SDS011;12356;49.386;8.688;2023-02-28T08:35:58;10.88;;;6.60;;
24216;SDS011;12356;49.386;8.688;2023-02-28T08:38:29;10.95;;;6.70;;
24216;SDS011;12356;49.386;8.688;2023-02-28T08:41:00;12.55;;;6.72;;
24216;SDS011;12356;49.386;8.688;2023-02-28T08:43:33;12.27;;;6.68;;
24216;SDS011;12356;49.386;8.688;2023-02-28T08:46:05;9.93;;;6.43;;
24216;SDS011;12356;49.386;8.688;2023-02-28T08:48:36;11.63;;;7.07;;
24216;SDS011;12356;49.386;8.688;2023-02-28T08:51:10;10.68;;;6.68;;
24216;SDS011;12356;49.386;8.688;2023-02-28T08:53:52;12.48;;;6.45;;
24216;SDS011;12356;49.386;8.688;2023-02-28T08:56:25;10.85;;;6.30;;
24216;SDS011;12356;49.386;8.688;2023-02-28T08:58:57;11.35;;;6.43;;
24216;SDS011;12356;49.386;8.688;2023-02-28T09:01:28;12.25;;;6.55;;
24216;SDS011;12356;49.386;8.688;2023-02-28T09:03:58;13.00;;;7.07;;
24216;SDS011;12356;49.386;8.688;2023-02-28T09:06:29;13.48;;;7.53;;
24216;SDS011;12356;49.386;8.688;2023-02-28T09:08:59;12.00;;;7.05;;
24216;SDS011;12356;49.386;8.688;2023-02-28T09:11:31;11.20;;;6.82;;
24216;SDS011;12356;49.386;8.688;2023-02-28T09:14:02;11.63;;;6.70;;
24216;SDS011;12356;49.386;8.688;2023-02-28T09:16:33;12.55;;;6.85;;
24216;SDS011;12356;49.386;8.688;2023-02-28T09:19:04;10.98;;;6.30;;
24216;SDS011;12356;49.386;8.688;2023-02-28T09:21:35;14.02;;;7.10;;
24216;SDS011;12356;49.386;8.688;2023-02-28T09:24:06;11.80;;;6.70;;
24216;SDS011;12356;49.386;8.688;2023-02-28T09:26:37;11.40;;;7.20;;
24216;SDS011;12356;49.386;8.688;2023-02-28T09:29:08;12.52;;;6.82;;
24216;SDS011;12356;49.386;8.688;2023-02-28T09:31:39;14.63;;;7.43;;
24216;SDS011;12356;49.386;8.688;2023-02-28T09:34:10;12.48;;;7.57;;
24216;SDS011;12356;49.386;8.688;2023-02-28T09:36:40;12.60;;;7.63;;
24216;SDS011;12356;49.386;8.688;2023-02-28T09:39:11;10.77;;;6.22;;
24216;SDS011;12356;49.386;8.688;2023-02-28T09:41:44;11.20;;;7.03;;
24216;SDS011;12356;49.386;8.688;2023-02-28T09:44:22;12.02;;;7.18;;
24216;SDS011;12356;49.386;8.688;2023-02-28T09:46:56;12.65;;;7.13;;
24216;SDS011;12356;49.386;8.688;2023-02-28T09:49:34;13.27;;;7.20;;
24216;SDS011;12356;49.386;8.688;2023-02-28T09:52:20;13.05;;;7.18;;
24216;SDS011;12356;49.386;8.688;2023-02-28T09:54:58;12.45;;;7.43;;
24216;SDS011;12356;49.386;8.688;2023-02-28T09:57:41;12.82;;;7.22;;
24216;SDS011;12356;49.386;8.688;2023-02-28T10:00:22;12.73;;;7.50;;
24216;SDS011;12356;49.386;8.688;2023-02-28T10:03:14;14.90;;;7.68;;
24216;SDS011;12356;49.386;8.688;2023-02-28T10:08:47;12.60;;;7.40;;
24216;SDS011;12356;49.386;8.688;2023-02-28T10:11:34;12.70;;;7.45;;
24216;SDS011;12356;49.386;8.688;2023-02-28T10:14:21;13.60;;;7.75;;
24216;SDS011;12356;49.386;8.688;2023-02-28T10:19:58;16.77;;;7.35;;
24216;SDS011;12356;49.386;8.688;2023-02-28T10:22:39;11.90;;;7.10;;
24216;SDS011;12356;49.386;8.688;2023-02-28T10:25:26;12.15;;;7.38;;
24216;SDS011;12356;49.386;8.688;2023-02-28T10:28:01;12.50;;;7.15;;
24216;SDS011;12356;49.386;8.688;2023-02-28T10:30:39;11.23;;;6.90;;
24216;SDS011;12356;49.386;8.688;2023-02-28T10:35:59;13.57;;;7.75;;
24216;SDS011;12356;49.386;8.688;2023-02-28T10:38:34;12.43;;;8.25;;
24216;SDS011;12356;49.386;8.688;2023-02-28T10:41:10;13.30;;;7.55;;
24216;SDS011;12356;49.386;8.688;2023-02-28T10:43:45;10.88;;;7.00;;
24216;SDS011;12356;49.386;8.688;2023-02-28T10:46:16;13.15;;;8.02;;
24216;SDS011;12356;49.386;8.688;2023-02-28T10:48:59;11.23;;;7.30;;
24216;SDS011;12356;49.386;8.688;2023-02-28T10:51:37;12.75;;;7.68;;
24216;SDS011;12356;49.386;8.688;2023-02-28T10:54:19;16.73;;;7.35;;
24216;SDS011;12356;49.386;8.688;2023-02-28T10:59:50;17.25;;;8.00;;
24216;SDS011;12356;49.386;8.688;2023-02-28T11:02:29;12.43;;;7.32;;
24216;SDS011;12356;49.386;8.688;2023-02-28T11:05:01;14.10;;;8.00;;
24216;SDS011;12356;49.386;8.688;2023-02-28T11:07:32;12.55;;;7.72;;
24216;SDS011;12356;49.386;8.688;2023-02-28T11:10:03;14.02;;;7.57;;
24216;SDS011;12356;49.386;8.688;2023-02-28T11:12:38;13.68;;;7.45;;
24216;SDS011;12356;49.386;8.688;2023-02-28T11:15:28;13.40;;;7.72;;
24216;SDS011;12356;49.386;8.688;2023-02-28T11:18:02;14.00;;;8.20;;
24216;SDS011;12356;49.386;8.688;2023-02-28T11:20:41;12.65;;;7.65;;
24216;SDS011;12356;49.386;8.688;2023-02-28T11:23:12;13.38;;;8.15;;
24216;SDS011;12356;49.386;8.688;2023-02-28T11:25:47;13.13;;;8.07;;
24216;SDS011;12356;49.386;8.688;2023-02-28T11:28:23;13.30;;;7.90;;
24216;SDS011;12356;49.386;8.688;2023-02-28T11:31:05;13.63;;;8.23;;
24216;SDS011;12356;49.386;8.688;2023-02-28T11:33:43;12.65;;;7.82;;
24216;SDS011;12356;49.386;8.688;2023-02-28T11:36:36;12.20;;;7.70;;
24216;SDS011;12356;49.386;8.688;2023-02-28T11:39:10;11.15;;;7.75;;
24216;SDS011;12356;49.386;8.688;2023-02-28T11:44:50;13.85;;;8.48;;
24216;SDS011;12356;49.386;8.688;2023-02-28T11:47:47;12.85;;;7.85;;
24216;SDS011;12356;49.386;8.688;2023-02-28T11:53:39;14.02;;;8.57;;
24216;SDS011;12356;49.386;8.688;2023-02-28T11:59:48;15.07;;;8.15;;
24216;SDS011;12356;49.386;8.688;2023-02-28T12:08:15;13.85;;;7.82;;
24216;SDS011;12356;49.386;8.688;2023-02-28T12:11:06;13.40;;;7.97;;
24216;SDS011;12356;49.386;8.688;2023-02-28T12:14:12;14.57;;;8.00;;
24216;SDS011;12356;49.386;8.688;2023-02-28T12:20:02;15.27;;;8.55;;
24216;SDS011;12356;49.386;8.688;2023-02-28T12:28:42;13.43;;;8.73;;
24216;SDS011;12356;49.386;8.688;2023-02-28T12:34:22;14.57;;;9.20;;
24216;SDS011;12356;49.386;8.688;2023-02-28T12:37:02;15.13;;;9.18;;
24216;SDS011;12356;49.386;8.688;2023-02-28T12:39:41;15.70;;;9.23;;
24216;SDS011;12356;49.386;8.688;2023-02-28T12:42:23;13.43;;;8.68;;
24216;SDS011;12356;49.386;8.688;2023-02-28T12:45:00;13.73;;;8.50;;
24216;SDS011;12356;49.386;8.688;2023-02-28T12:47:34;15.35;;;8.85;;
24216;SDS011;12356;49.386;8.688;2023-02-28T12:50:06;14.85;;;9.20;;
24216;SDS011;12356;49.386;8.688;2023-02-28T12:55:26;13.20;;;8.55;;
24216;SDS011;12356;49.386;8.688;2023-02-28T12:58:20;13.70;;;9.15;;
24216;SDS011;12356;49.386;8.688;2023-02-28T13:04:07;16.33;;;9.00;;
24216;SDS011;12356;49.386;8.688;2023-02-28T13:09:51;19.08;;;10.07;;
24216;SDS011;12356;49.386;8.688;2023-02-28T13:12:29;16.02;;;9.68;;
24216;SDS011;12356;49.386;8.688;2023-02-28T13:15:22;15.52;;;9.20;;
24216;SDS011;12356;49.386;8.688;2023-02-28T13:17:58;15.07;;;9.93;;
24216;SDS011;12356;49.386;8.688;2023-02-28T13:20:32;16.15;;;9.65;;
24216;SDS011;12356;49.386;8.688;2023-02-28T13:23:16;15.13;;;9.05;;
24216;SDS011;12356;49.386;8.688;2023-02-28T13:26:16;14.70;;;9.50;;
24216;SDS011;12356;49.386;8.688;2023-02-28T13:31:23;18.08;;;10.27;;
24216;SDS011;12356;49.386;8.688;2023-02-28T13:39:02;15.68;;;10.18;;
24216;SDS011;12356;49.386;8.688;2023-02-28T13:41:53;15.18;;;10.10;;
24216;SDS011;12356;49.386;8.688;2023-02-28T13:44:23;15.02;;;9.88;;
24216;SDS011;12356;49.386;8.688;2023-02-28T13:49:27;15.68;;;9.98;;
24216;SDS011;12356;49.386;8.688;2023-02-28T14:06:49;18.00;;;9.77;;
24216;SDS011;12356;49.386;8.688;2023-02-28T14:09:40;17.00;;;9.80;;
24216;SDS011;12356;49.386;8.688;2023-02-28T14:15:36;14.00;;;8.90;;
24216;SDS011;12356;49.386;8.688;2023-02-28T14:21:22;15.65;;;9.25;;
24216;SDS011;12356;49.386;8.688;2023-02-28T14:32:35;14.02;;;9.48;;
24216;SDS011;12356;49.386;8.688;2023-02-28T14:38:05;14.98;;;9.20;;
24216;SDS011;12356;49.386;8.688;2023-02-28T14:40:43;15.02;;;9.65;;
24216;SDS011;12356;49.386;8.688;2023-02-28T14:43:19;14.85;;;9.30;;
24216;SDS011;12356;49.386;8.688;2023-02-28T14:45:52;14.43;;;8.88;;
24216;SDS011;12356;49.386;8.688;2023-02-28T14:48:29;14.23;;;9.10;;
24216;SDS011;12356;49.386;8.688;2023-02-28T14:51:00;14.25;;;9.00;;
24216;SDS011;12356;49.386;8.688;2023-02-28T14:53:35;15.25;;;9.57;;
24216;SDS011;12356;49.386;8.688;2023-02-28T14:56:17;15.65;;;9.02;;
24216;SDS011;12356;49.386;8.688;2023-02-28T14:58:54;15.45;;;9.60;;
24216;SDS011;12356;49.386;8.688;2023-02-28T15:01:26;19.17;;;9.40;;
24216;SDS011;12356;49.386;8.688;2023-02-28T15:04:04;16.63;;;9.77;;
24216;SDS011;12356;49.386;8.688;2023-02-28T15:06:36;15.40;;;9.20;;
24216;SDS011;12356;49.386;8.688;2023-02-28T15:09:16;14.27;;;9.02;;
24216;SDS011;12356;49.386;8.688;2023-02-28T15:11:48;14.23;;;9.00;;
24216;SDS011;12356;49.386;8.688;2023-02-28T15:14:20;15.10;;;9.43;;
24216;SDS011;12356;49.386;8.688;2023-02-28T15:16:52;15.32;;;9.32;;
24216;SDS011;12356;49.386;8.688;2023-02-28T15:19:32;16.55;;;9.07;;
24216;SDS011;12356;49.386;8.688;2023-02-28T15:22:14;13.85;;;9.00;;
24216;SDS011;12356;49.386;8.688;2023-02-28T15:24:48;15.95;;;9.85;;
24216;SDS011;12356;49.386;8.688;2023-02-28T15:27:31;14.25;;;9.07;;
24216;SDS011;12356;49.386;8.688;2023-02-28T15:30:07;15.45;;;9.63;;
24216;SDS011;12356;49.386;8.688;2023-02-28T15:32:44;14.95;;;9.38;;
24216;SDS011;12356;49.386;8.688;2023-02-28T15:35:31;14.10;;;8.95;;
24216;SDS011;12356;49.386;8.688;2023-02-28T15:38:04;15.52;;;9.75;;
24216;SDS011;12356;49.386;8.688;2023-02-28T15:40:57;14.65;;;9.15;;
24216;SDS011;12356;49.386;8.688;2023-02-28T15:43:29;17.15;;;9.35;;
24216;SDS011;12356;49.386;8.688;2023-02-28T15:46:09;13.50;;;9.05;;
24216;SDS011;12356;49.386;8.688;2023-02-28T15:48:43;14.35;;;8.95;;
24216;SDS011;12356;49.386;8.688;2023-02-28T15:51:19;16.15;;;9.00;;
24216;SDS011;12356;49.386;8.688;2023-02-28T15:53:57;15.88;;;9.20;;
24216;SDS011;12356;49.386;8.688;2023-02-28T15:56:31;14.13;;;8.98;;
24216;SDS011;12356;49.386;8.688;2023-02-28T15:59:05;16.17;;;9.27;;
24216;SDS011;12356;49.386;8.688;2023-02-28T16:01:38;14.35;;;9.05;;
24216;SDS011;12356;49.386;8.688;2023-02-28T16:04:17;15.63;;;9.25;;
24216;SDS011;12356;49.386;8.688;2023-02-28T16:09:28;15.48;;;9.70;;
24216;SDS011;12356;49.386;8.688;2023-02-28T16:12:01;15.48;;;9.30;;
24216;SDS011;12356;49.386;8.688;2023-02-28T16:14:32;14.93;;;9.33;;
24216;SDS011;12356;49.386;8.688;2023-02-28T16:17:06;16.30;;;9.73;;
24216;SDS011;12356;49.386;8.688;2023-02-28T16:19:38;14.05;;;8.65;;
24216;SDS011;12356;49.386;8.688;2023-02-28T16:22:09;13.98;;;8.80;;
24216;SDS011;12356;49.386;8.688;2023-02-28T16:24:39;16.90;;;9.45;;
24216;SDS011;12356;49.386;8.688;2023-02-28T16:27:32;16.00;;;8.77;;
24216;SDS011;12356;49.386;8.688;2023-02-28T16:30:03;13.85;;;8.90;;
24216;SDS011;12356;49.386;8.688;2023-02-28T16:32:35;16.13;;;9.20;;
24216;SDS011;12356;49.386;8.688;2023-02-28T16:35:09;14.88;;;9.32;;
24216;SDS011;12356;49.386;8.688;2023-02-28T16:37:41;14.75;;;9.05;;
24216;SDS011;12356;49.386;8.688;2023-02-28T16:40:16;16.17;;;9.60;;
24216;SDS011;12356;49.386;8.688;2023-02-28T16:42:49;14.90;;;8.70;;
24216;SDS011;12356;49.386;8.688;2023-02-28T16:45:22;14.90;;;9.43;;
24216;SDS011;12356;49.386;8.688;2023-02-28T16:47:54;16.05;;;8.80;;
24216;SDS011;12356;49.386;8.688;2023-02-28T16:50:26;15.52;;;9.60;;
24216;SDS011;12356;49.386;8.688;2023-02-28T16:52:59;13.93;;;8.88;;
24216;SDS011;12356;49.386;8.688;2023-02-28T16:55:29;16.05;;;9.52;;
24216;SDS011;12356;49.386;8.688;2023-02-28T16:58:01;15.27;;;9.05;;
24216;SDS011;12356;49.386;8.688;2023-02-28T17:00:32;14.65;;;8.77;;
24216;SDS011;12356;49.386;8.688;2023-02-28T17:03:02;16.27;;;9.00;;
24216;SDS011;12356;49.386;8.688;2023-02-28T17:05:35;14.18;;;9.10;;
24216;SDS011;12356;49.386;8.688;2023-02-28T17:08:08;13.32;;;8.30;;
24216;SDS011;12356;49.386;8.688;2023-02-28T17:10:39;15.23;;;9.30;;
24216;SDS011;12356;49.386;8.688;2023-02-28T17:13:10;15.23;;;9.35;;
24216;SDS011;12356;49.386;8.688;2023-02-28T17:15:40;13.45;;;8.60;;
24216;SDS011;12356;49.386;8.688;2023-02-28T17:18:13;16.77;;;9.25;;
24216;SDS011;12356;49.386;8.688;2023-02-28T17:20:47;14.68;;;8.55;;
24216;SDS011;12356;49.386;8.688;2023-02-28T17:23:18;15.52;;;8.77;;
24216;SDS011;12356;49.386;8.688;2023-02-28T17:25:48;15.75;;;9.27;;
24216;SDS011;12356;49.386;8.688;2023-02-28T17:28:23;14.45;;;8.82;;
24216;SDS011;12356;49.386;8.688;2023-02-28T17:30:54;15.38;;;9.25;;
24216;SDS011;12356;49.386;8.688;2023-02-28T17:33:24;17.00;;;10.13;;